Sheng Jia 1 — XUGG7 — position and weather

sailwx.info

Track history (hours):
 
Tides and Currents Weather Stations Pressure Air Temp Water Temp Dewpoint Dewpoint Depression Visibility Wind Speed Wind Dir Waves Ship Positions

Sheng Jia 1

Last reported at 2014-Oct-31 16:21 UTC. Time now 2014-Nov-01 13:21 UTC.
Position N 34°08' E 134°45'.

Length 73 m; draft 4 m.

Type: Cargo ship. MMSI: 515744000.

Date/timePositionNaut miles runAvg speedWind from/ knotsBaromVisibWave heightAir tempDewpointWater temp
2014-Oct-31 16:21N 34°08' E 134°45'256 7.0
2014-Oct-30 03:33N 35°17' E 139°45'8 7.9
2014-Oct-30 02:33N 35°25' E 139°44'9 8.6
2014-Oct-30 01:32N 35°30' E 139°53'8 8.6
2014-Oct-30 00:33N 35°34' E 140°02'3 0.1
2014-Oct-28 21:03N 35°33' E 140°05'10 0.6
2014-Oct-28 03:31N 35°29' E 139°53'8 8.1
2014-Oct-28 02:33N 35°26' E 139°45'5 5.4
2014-Oct-28 01:33N 35°28' E 139°39'0 0.0
2014-Oct-28 00:33N 35°28' E 139°39'0 0.0
2014-Oct-27 23:33N 35°28' E 139°39'0 0.0
2014-Oct-27 22:33N 35°28' E 139°39'3 3.4
2014-Oct-27 21:34N 35°26' E 139°42'0 0.4
2014-Oct-27 20:33N 35°26' E 139°43'0 0.0
2014-Oct-27 19:33N 35°26' E 139°43'3 3.4
2014-Oct-27 18:34N 35°24' E 139°46'7 7.3
2014-Oct-27 17:34N 35°17' E 139°45'7 7.3
2014-Oct-27 16:33N 35°10' E 139°47'  
2014-Oct-22 23:16N 30°41' E 122°51'2 2.7
2014-Oct-22 22:33N 30°41' E 122°48'0 0.0
2014-Oct-22 21:32N 30°41' E 122°48'0 0.1
2014-Oct-22 20:33N 30°41' E 122°49'0 0.0
2014-Oct-22 19:33N 30°41' E 122°49'0 0.1
2014-Oct-22 18:33N 30°41' E 122°49'0 0.0
2014-Oct-22 17:33N 30°41' E 122°49'0 0.1
2014-Oct-22 16:32N 30°41' E 122°49'0 0.1
2014-Oct-22 15:32N 30°41' E 122°49'0 0.1
2014-Oct-22 14:33N 30°41' E 122°49'0 0.0
2014-Oct-22 13:29N 30°41' E 122°49'0 0.0
2014-Oct-22 12:33N 30°41' E 122°49'2 0.5
2014-Oct-22 08:33N 30°41' E 122°51'2 2.1
2014-Oct-22 07:33N 30°41' E 122°48'0 0.1
2014-Oct-22 06:33N 30°41' E 122°48'0 0.0
2014-Oct-22 05:33N 30°41' E 122°48'0 0.0
2014-Oct-22 04:33N 30°41' E 122°48'0 0.0
2014-Oct-22 03:33N 30°41' E 122°48'0 0.0
2014-Oct-22 02:32N 30°41' E 122°48'0 0.1
2014-Oct-22 01:33N 30°41' E 122°48'0 0.1
2014-Oct-22 00:33N 30°41' E 122°48'0 0.0
2014-Oct-21 23:32N 30°41' E 122°48'0 0.0
2014-Oct-21 22:32N 30°41' E 122°48'0 0.0
2014-Oct-21 21:33N 30°41' E 122°48'0 0.0
2014-Oct-21 20:33N 30°41' E 122°48'0 0.0
2014-Oct-21 19:34N 30°41' E 122°48'0 0.0
2014-Oct-21 18:31N 30°41' E 122°48'0 0.1
2014-Oct-21 17:32N 30°41' E 122°48'0 0.0
2014-Oct-21 16:33N 30°41' E 122°48'  
Track history (hours):
 
Tides and Currents Weather Stations Pressure Air Temp Water Temp Dewpoint Dewpoint Depression Visibility Wind Speed Wind Dir Waves Ship Positions

Sheng Jia 1

Last reported at 2014-Oct-31 16:21 UTC. Time now 2014-Nov-01 13:21 UTC.
Position N 34°08' E 134°45'.

Length 73 m; draft 4 m.

Type: Cargo ship. MMSI: 515744000.

Date/timePositionNaut miles runAvg speedWind from/ knotsBaromVisibWave heightAir tempDewpointWater temp
2014-Oct-31 16:21N 34°08' E 134°45'256 7.0
2014-Oct-30 03:33N 35°17' E 139°45'8 7.9
2014-Oct-30 02:33N 35°25' E 139°44'9 8.6
2014-Oct-30 01:32N 35°30' E 139°53'8 8.6
2014-Oct-30 00:33N 35°34' E 140°02'3 0.1
2014-Oct-28 21:03N 35°33' E 140°05'10 0.6
2014-Oct-28 03:31N 35°29' E 139°53'8 8.1
2014-Oct-28 02:33N 35°26' E 139°45'5 5.4
2014-Oct-28 01:33N 35°28' E 139°39'0 0.0
2014-Oct-28 00:33N 35°28' E 139°39'0 0.0
2014-Oct-27 23:33N 35°28' E 139°39'0 0.0
2014-Oct-27 22:33N 35°28' E 139°39'3 3.4
2014-Oct-27 21:34N 35°26' E 139°42'0 0.4
2014-Oct-27 20:33N 35°26' E 139°43'0 0.0
2014-Oct-27 19:33N 35°26' E 139°43'3 3.4
2014-Oct-27 18:34N 35°24' E 139°46'7 7.3
2014-Oct-27 17:34N 35°17' E 139°45'7 7.3
2014-Oct-27 16:33N 35°10' E 139°47'  
2014-Oct-22 23:16N 30°41' E 122°51'2 2.7
2014-Oct-22 22:33N 30°41' E 122°48'0 0.0
2014-Oct-22 21:32N 30°41' E 122°48'0 0.1
2014-Oct-22 20:33N 30°41' E 122°49'0 0.0
2014-Oct-22 19:33N 30°41' E 122°49'0 0.1
2014-Oct-22 18:33N 30°41' E 122°49'0 0.0
2014-Oct-22 17:33N 30°41' E 122°49'0 0.1
2014-Oct-22 16:32N 30°41' E 122°49'0 0.1
2014-Oct-22 15:32N 30°41' E 122°49'0 0.1
2014-Oct-22 14:33N 30°41' E 122°49'0 0.0
2014-Oct-22 13:29N 30°41' E 122°49'0 0.0
2014-Oct-22 12:33N 30°41' E 122°49'2 0.5
2014-Oct-22 08:33N 30°41' E 122°51'2 2.1
2014-Oct-22 07:33N 30°41' E 122°48'0 0.1
2014-Oct-22 06:33N 30°41' E 122°48'0 0.0
2014-Oct-22 05:33N 30°41' E 122°48'0 0.0
2014-Oct-22 04:33N 30°41' E 122°48'0 0.0
2014-Oct-22 03:33N 30°41' E 122°48'0 0.0
2014-Oct-22 02:32N 30°41' E 122°48'0 0.1
2014-Oct-22 01:33N 30°41' E 122°48'0 0.1
2014-Oct-22 00:33N 30°41' E 122°48'0 0.0
2014-Oct-21 23:32N 30°41' E 122°48'0 0.0
2014-Oct-21 22:32N 30°41' E 122°48'0 0.0
2014-Oct-21 21:33N 30°41' E 122°48'0 0.0
2014-Oct-21 20:33N 30°41' E 122°48'0 0.0
2014-Oct-21 19:34N 30°41' E 122°48'0 0.0
2014-Oct-21 18:31N 30°41' E 122°48'0 0.1
2014-Oct-21 17:32N 30°41' E 122°48'0 0.0
2014-Oct-21 16:33N 30°41' E 122°48'  

Dump ship's entire track history